createdAt,value
2019-04-26T00:01:50.876Z,60.24
2019-04-26T00:04:23.289Z,60.35
2019-04-26T00:06:55.343Z,60.42
2019-04-26T00:09:35.707Z,60.34
2019-04-26T00:12:27.268Z,60.28
2019-04-26T00:15:34.547Z,60.20
2019-04-26T00:18:06.875Z,60.65
2019-04-26T00:20:38.854Z,60.89
2019-04-26T00:23:11.856Z,61.00
2019-04-26T00:25:44.318Z,61.13
2019-04-26T00:28:17.000Z,61.52
2019-04-26T00:30:48.993Z,61.64
2019-04-26T00:33:21.446Z,61.81
2019-04-26T00:35:53.551Z,61.72
2019-04-26T00:38:25.478Z,61.88
2019-04-26T00:40:57.950Z,61.61
2019-04-26T00:43:29.885Z,61.93
2019-04-26T00:46:03.316Z,61.86
2019-04-26T00:48:35.558Z,62.05
2019-04-26T00:51:08.265Z,62.34
2019-04-26T00:53:40.788Z,62.52
2019-04-26T00:56:14.513Z,62.35
2019-04-26T00:58:46.804Z,62.74
2019-04-26T01:01:20.762Z,62.67
2019-04-26T01:03:52.836Z,62.72
2019-04-26T01:06:27.770Z,63.03
2019-04-26T01:08:59.714Z,63.23
2019-04-26T01:11:31.692Z,63.29
2019-04-26T01:14:03.955Z,63.50
2019-04-26T01:16:36.009Z,63.71
2019-04-26T01:19:09.986Z,64.26
2019-04-26T01:21:47.579Z,64.19
2019-04-26T01:24:21.233Z,64.49
2019-04-26T01:26:55.016Z,64.91
2019-04-26T01:29:28.009Z,64.85
2019-04-26T01:32:07.524Z,64.93
2019-04-26T01:34:40.985Z,64.78
2019-04-26T01:37:13.151Z,64.47
2019-04-26T01:39:50.489Z,64.65
2019-04-26T01:42:42.064Z,64.46
2019-04-26T01:45:20.295Z,64.44
2019-04-26T01:47:55.367Z,64.56
2019-04-26T01:50:29.426Z,64.57
2019-04-26T01:53:02.686Z,64.68
2019-04-26T01:55:34.686Z,64.78
2019-04-26T01:58:06.896Z,64.67
2019-04-26T02:00:47.564Z,64.82
2019-04-26T02:03:23.916Z,64.96
2019-04-26T02:05:56.025Z,65.05
2019-04-26T02:08:28.286Z,65.07
2019-04-26T02:11:00.415Z,65.77
2019-04-26T02:13:33.099Z,65.79
2019-04-26T02:16:05.124Z,66.22
2019-04-26T02:18:37.156Z,65.72
2019-04-26T02:21:20.673Z,66.53
2019-04-26T02:24:12.230Z,66.77
2019-04-26T02:26:45.672Z,66.61
2019-04-26T02:29:21.020Z,66.67
2019-04-26T02:31:56.619Z,66.71
2019-04-26T02:34:31.168Z,66.36
2019-04-26T02:37:04.395Z,66.67
2019-04-26T02:39:38.298Z,66.90
2019-04-26T02:42:38.065Z,67.04
2019-04-26T02:45:53.790Z,66.83
2019-04-26T02:48:55.568Z,66.87
2019-04-26T02:51:34.146Z,66.91
2019-04-26T02:54:18.381Z,66.39
2019-04-26T02:56:52.137Z,66.51
2019-04-26T02:59:40.598Z,66.50
2019-04-26T03:02:23.450Z,66.59
2019-04-26T03:04:57.702Z,66.93
2019-04-26T03:07:59.598Z,67.50
2019-04-26T03:10:43.453Z,67.55
2019-04-26T03:13:26.735Z,66.71
2019-04-26T03:16:27.729Z,67.63
2019-04-26T03:19:23.151Z,67.40
2019-04-26T03:22:20.219Z,68.08
2019-04-26T03:25:20.233Z,68.08
2019-04-26T03:28:32.675Z,67.97
2019-04-26T03:31:46.001Z,68.16
2019-04-26T03:34:42.295Z,68.17
2019-04-26T03:37:40.499Z,68.50
2019-04-26T03:40:44.988Z,68.61
2019-04-26T03:43:47.085Z,68.67
2019-04-26T03:46:31.248Z,68.45
2019-04-26T03:49:54.596Z,68.42
2019-04-26T03:53:12.832Z,68.70
2019-04-26T03:56:24.587Z,68.16
2019-04-26T03:59:27.153Z,68.54
2019-04-26T04:02:10.740Z,68.74
2019-04-26T04:04:57.920Z,68.74
2019-04-26T04:07:39.178Z,68.94
2019-04-26T04:10:12.140Z,68.47
2019-04-26T04:13:38.276Z,68.79
2019-04-26T04:16:54.320Z,68.54
2019-04-26T04:20:21.261Z,68.41
2019-04-26T04:23:19.625Z,68.67
2019-04-26T04:25:52.822Z,68.50
2019-04-26T04:28:53.873Z,68.26
2019-04-26T04:31:30.851Z,67.97
2019-04-26T04:34:16.073Z,67.64
2019-04-26T04:36:51.374Z,67.33
2019-04-26T04:39:56.691Z,67.33
2019-04-26T04:42:43.548Z,67.62
2019-04-26T04:45:53.699Z,67.66
2019-04-26T04:48:43.316Z,67.80
2019-04-26T04:51:32.246Z,67.73
2019-04-26T04:54:17.294Z,67.57
2019-04-26T04:57:06.433Z,67.92
2019-04-26T05:00:45.056Z,67.56
2019-04-26T05:03:27.821Z,68.22
2019-04-26T05:06:18.611Z,67.63
2019-04-26T05:09:07.449Z,67.40
2019-04-26T05:11:48.315Z,66.60
2019-04-26T05:15:02.858Z,66.43
2019-04-26T05:18:07.530Z,66.39
2019-04-26T05:20:46.998Z,66.85
2019-04-26T05:24:13.975Z,67.23
2019-04-26T05:27:38.832Z,66.69
2019-04-26T05:31:16.259Z,66.30
2019-04-26T05:34:11.840Z,66.05
2019-04-26T05:36:53.131Z,65.87
2019-04-26T05:40:04.611Z,65.13
2019-04-26T05:43:28.757Z,65.27
2019-04-26T05:46:41.444Z,64.79
2019-04-26T05:49:59.975Z,64.47
2019-04-26T05:53:06.670Z,64.45
2019-04-26T05:56:29.256Z,64.92
2019-04-26T05:59:07.632Z,65.20
2019-04-26T06:02:27.422Z,65.30
2019-04-26T06:05:23.545Z,66.14
2019-04-26T06:08:55.330Z,65.05
2019-04-26T06:11:38.793Z,64.57
2019-04-26T06:14:50.506Z,63.63
2019-04-26T06:17:55.895Z,62.94
2019-04-26T06:21:09.408Z,62.35
2019-04-26T06:24:19.706Z,62.49
2019-04-26T06:27:13.690Z,61.64
2019-04-26T06:30:14.290Z,62.75
2019-04-26T06:33:04.763Z,62.96
2019-04-26T06:35:39.364Z,62.24
2019-04-26T06:38:55.708Z,62.57
2019-04-26T06:42:14.432Z,62.85
2019-04-26T06:45:17.202Z,63.74
2019-04-26T06:47:58.807Z,64.42
2019-04-26T06:50:38.288Z,63.87
2019-04-26T06:53:21.938Z,63.53
2019-04-26T06:56:07.797Z,63.18
2019-04-26T06:59:19.707Z,62.79
2019-04-26T07:02:08.221Z,62.27
2019-04-26T07:05:11.933Z,62.99
2019-04-26T07:08:18.093Z,62.34
2019-04-26T07:11:45.968Z,61.94
2019-04-26T07:14:41.188Z,62.33
2019-04-26T07:17:17.336Z,63.12
2019-04-26T07:20:22.359Z,63.48
2019-04-26T07:23:42.555Z,63.00
2019-04-26T07:26:38.798Z,62.20
2019-04-26T07:29:28.402Z,62.73
2019-04-26T07:32:39.835Z,62.71
2019-04-26T07:35:33.948Z,62.13
2019-04-26T07:39:10.380Z,62.51
2019-04-26T07:42:11.716Z,62.97
2019-04-26T07:45:32.548Z,63.21
2019-04-26T07:48:58.301Z,63.88
2019-04-26T07:52:15.744Z,63.88
2019-04-26T07:55:12.890Z,64.20
2019-04-26T07:58:21.698Z,64.75
2019-04-26T08:01:04.099Z,64.99
2019-04-26T08:03:49.019Z,65.44
2019-04-26T08:06:41.191Z,65.45
2019-04-26T08:09:25.604Z,65.32
2019-04-26T08:11:52.261Z,66.02
2019-04-26T08:14:50.693Z,66.62
2019-04-26T08:17:46.182Z,68.81
2019-04-26T08:20:40.168Z,69.17
2019-04-26T08:23:37.555Z,70.04
2019-04-26T08:25:51.941Z,69.81
2019-04-26T08:28:25.825Z,69.63
2019-04-26T08:30:59.239Z,69.58
2019-04-26T08:33:41.029Z,69.87
2019-04-26T08:36:12.699Z,70.18
2019-04-26T08:38:45.225Z,71.57
2019-04-26T08:41:18.806Z,71.10
2019-04-26T08:44:09.843Z,72.68
2019-04-26T08:47:02.441Z,73.37
2019-04-26T08:49:56.767Z,73.15
2019-04-26T08:52:31.181Z,76.26
2019-04-26T08:55:04.750Z,77.08
2019-04-26T08:57:39.593Z,77.67
2019-04-26T09:00:26.081Z,78.70
2019-04-26T09:03:11.614Z,79.58
2019-04-26T09:06:03.000Z,78.11
2019-04-26T09:08:39.355Z,79.82
2019-04-26T09:11:23.673Z,80.14
2019-04-26T09:13:49.899Z,80.45
2019-04-26T09:16:21.392Z,80.35
2019-04-26T09:18:57.280Z,80.63
2019-04-26T09:21:52.130Z,80.60
2019-04-26T09:24:38.428Z,80.73
2019-04-26T09:27:44.970Z,80.60
2019-04-26T09:30:33.635Z,80.59
2019-04-26T09:33:14.862Z,80.39
2019-04-26T09:35:46.892Z,80.99
2019-04-26T09:38:18.939Z,81.16
2019-04-26T09:40:52.569Z,80.62
2019-04-26T09:43:47.966Z,80.49
2019-04-26T09:46:39.516Z,80.92
2019-04-26T09:49:25.912Z,79.83
2019-04-26T09:51:57.970Z,81.63
2019-04-26T09:54:29.982Z,82.15
2019-04-26T09:57:02.122Z,82.23
2019-04-26T09:59:36.251Z,81.88
2019-04-26T10:02:09.118Z,81.34
2019-04-26T10:04:41.143Z,81.20
2019-04-26T10:07:13.101Z,82.67
2019-04-26T10:09:45.135Z,83.06
2019-04-26T10:12:26.989Z,83.79
2019-04-26T10:15:26.749Z,83.34
2019-04-26T10:17:58.696Z,83.68
2019-04-26T10:20:30.699Z,83.28
2019-04-26T10:23:02.826Z,83.97
2019-04-26T10:25:34.809Z,84.02
2019-04-26T10:28:06.837Z,84.57
2019-04-26T10:30:42.415Z,84.38
2019-04-26T10:33:12.820Z,84.42
2019-04-26T10:35:44.868Z,82.92
2019-04-26T10:38:19.391Z,82.67
2019-04-26T10:40:50.742Z,82.15
2019-04-26T10:43:22.761Z,81.96
2019-04-26T10:45:55.105Z,80.79
2019-04-26T10:48:27.143Z,80.94
2019-04-26T10:50:59.069Z,82.19
2019-04-26T10:53:50.489Z,82.37
2019-04-26T10:56:48.325Z,81.37
2019-04-26T10:59:32.801Z,81.27
2019-04-26T11:02:06.377Z,79.88
2019-04-26T11:04:41.464Z,79.17
2019-04-26T11:07:12.278Z,80.75
2019-04-26T11:09:44.243Z,80.52
2019-04-26T11:12:16.325Z,80.78
2019-04-26T11:14:48.368Z,81.08
2019-04-26T11:17:20.356Z,82.54
2019-04-26T11:19:52.398Z,82.77
2019-04-26T11:22:29.411Z,83.00
2019-04-26T11:24:58.562Z,83.61
2019-04-26T11:27:30.508Z,84.04
2019-04-26T11:30:12.924Z,83.70
2019-04-26T11:32:38.165Z,83.52
2019-04-26T11:35:10.429Z,83.24
2019-04-26T11:37:42.426Z,83.43
2019-04-26T11:40:15.680Z,83.84
2019-04-26T11:42:47.866Z,84.82
2019-04-26T11:45:19.864Z,84.57
2019-04-26T11:47:56.313Z,84.70
2019-04-26T11:50:25.785Z,83.80
2019-04-26T11:52:57.748Z,84.13
2019-04-26T11:55:31.416Z,84.71
2019-04-26T11:58:03.540Z,85.19
2019-04-26T12:00:41.101Z,85.48
2019-04-26T12:03:13.075Z,85.40
2019-04-26T12:06:04.915Z,85.77
2019-04-26T12:08:48.554Z,86.17
2019-04-26T12:11:26.230Z,85.95
2019-04-26T12:13:55.340Z,85.92
2019-04-26T12:16:28.455Z,85.98
2019-04-26T12:19:00.448Z,85.82
2019-04-26T12:21:34.154Z,86.06
2019-04-26T12:24:06.463Z,84.90
2019-04-26T12:26:43.063Z,83.31
2019-04-26T12:29:14.748Z,84.46
2019-04-26T12:31:46.357Z,84.61
2019-04-26T12:34:19.128Z,84.90
2019-04-26T12:36:51.249Z,85.12
2019-04-26T12:39:23.208Z,85.15
2019-04-26T12:41:55.221Z,85.14
2019-04-26T12:44:36.458Z,85.36
2019-04-26T12:47:14.626Z,85.21
2019-04-26T12:49:46.605Z,85.26
2019-04-26T12:52:21.548Z,85.65
2019-04-26T12:54:52.560Z,85.15
2019-04-26T12:57:24.606Z,85.75
2019-04-26T12:59:57.539Z,85.03
2019-04-26T13:02:30.740Z,85.19
2019-04-26T13:05:03.015Z,85.19
2019-04-26T13:07:35.109Z,84.17
2019-04-26T13:10:26.824Z,84.22
2019-04-26T13:13:24.290Z,83.29
2019-04-26T13:16:21.718Z,85.34
2019-04-26T13:18:52.897Z,83.65
2019-04-26T13:21:24.937Z,84.91
2019-04-26T13:24:00.181Z,85.27
2019-04-26T13:26:34.888Z,85.54
2019-04-26T13:29:04.854Z,85.20
2019-04-26T13:31:36.929Z,84.07
2019-04-26T13:34:08.953Z,84.08
2019-04-26T13:36:40.925Z,84.83
2019-04-26T13:39:13.558Z,84.11
2019-04-26T13:41:46.976Z,84.78
2019-04-26T13:44:39.354Z,84.70
2019-04-26T13:47:30.183Z,86.00
2019-04-26T13:50:11.200Z,86.51
2019-04-26T13:52:43.287Z,85.88
2019-04-26T13:55:15.342Z,85.82
2019-04-26T13:57:47.351Z,86.11
2019-04-26T14:00:23.139Z,85.25
2019-04-26T14:02:55.110Z,85.75
2019-04-26T14:05:27.168Z,85.32
2019-04-26T14:07:59.190Z,86.52
2019-04-26T14:10:31.210Z,86.99
2019-04-26T14:13:03.215Z,86.47
2019-04-26T14:15:35.313Z,85.93
2019-04-26T14:18:07.303Z,86.51
2019-04-26T14:20:39.327Z,85.44
2019-04-26T14:23:39.974Z,85.32
2019-04-26T14:26:18.862Z,85.33
2019-04-26T14:28:54.418Z,85.31
2019-04-26T14:31:24.744Z,86.44
2019-04-26T14:33:56.779Z,86.93
2019-04-26T14:36:28.792Z,87.14
2019-04-26T14:39:06.149Z,86.91
2019-04-26T14:41:34.769Z,87.11
2019-04-26T14:44:15.350Z,86.12
2019-04-26T14:46:48.671Z,86.17
2019-04-26T14:49:14.632Z,85.85
2019-04-26T14:51:46.990Z,85.40
2019-04-26T14:54:20.513Z,84.24
2019-04-26T14:56:52.687Z,85.19
2019-04-26T14:59:44.411Z,83.41
2019-04-26T15:02:35.363Z,84.35
2019-04-26T15:05:27.129Z,83.06
2019-04-26T15:07:59.242Z,85.19
2019-04-26T15:10:43.916Z,83.96
2019-04-26T15:13:17.336Z,84.29
2019-04-26T15:15:42.686Z,84.06
2019-04-26T15:18:15.894Z,84.97
2019-04-26T15:20:47.911Z,85.92
2019-04-26T15:23:23.861Z,85.52
2019-04-26T15:25:53.815Z,86.24
2019-04-26T15:28:25.840Z,86.78
2019-04-26T15:30:57.843Z,86.32
2019-04-26T15:33:29.875Z,86.40
2019-04-26T15:36:02.353Z,86.75
2019-04-26T15:38:41.537Z,85.83
2019-04-26T15:41:35.720Z,85.49
2019-04-26T15:44:28.241Z,84.50
2019-04-26T15:47:23.625Z,85.22
2019-04-26T15:50:05.566Z,82.77
2019-04-26T15:52:35.543Z,83.96
2019-04-26T15:55:07.851Z,83.95
2019-04-26T15:57:39.863Z,82.28
2019-04-26T16:00:12.561Z,82.73
2019-04-26T16:02:44.688Z,83.10
2019-04-26T16:05:16.895Z,83.07
2019-04-26T16:07:48.913Z,83.25
2019-04-26T16:10:25.538Z,82.54
2019-04-26T16:12:56.239Z,82.88
2019-04-26T16:15:28.388Z,82.96
2019-04-26T16:18:00.374Z,82.96
2019-04-26T16:20:37.548Z,81.23
2019-04-26T16:23:07.411Z,81.23
2019-04-26T16:25:39.584Z,82.01
2019-04-26T16:28:30.876Z,81.62
2019-04-26T16:31:14.727Z,81.71
2019-04-26T16:33:47.865Z,81.71
2019-04-26T16:36:19.861Z,81.24
2019-04-26T16:38:56.126Z,80.05
2019-04-26T16:41:27.329Z,81.56
2019-04-26T16:43:59.618Z,81.56
2019-04-26T16:46:33.266Z,82.03
2019-04-26T16:51:39.415Z,82.97
2019-04-26T16:54:20.914Z,83.35
2019-04-26T16:56:45.335Z,83.11
2019-04-26T16:59:22.687Z,83.09
2019-04-26T17:01:53.224Z,81.06
2019-04-26T17:04:31.979Z,81.13
2019-04-26T17:09:37.394Z,81.79
2019-04-26T17:09:41.878Z,80.27
2019-04-26T17:09:54.872Z,81.48
2019-04-26T17:12:10.659Z,81.88
2019-04-26T17:14:47.797Z,81.17
2019-04-26T17:17:16.062Z,82.80
2019-04-26T17:19:48.087Z,82.21
2019-04-26T17:22:44.559Z,82.53
2019-04-26T17:25:24.419Z,82.96
2019-04-26T17:27:56.007Z,83.06
2019-04-26T17:30:28.042Z,83.00
2019-04-26T17:33:00.005Z,84.04
2019-04-26T17:35:32.741Z,83.77
2019-04-26T17:38:05.167Z,83.85
2019-04-26T17:40:38.095Z,84.32
2019-04-26T17:43:11.437Z,83.84
2019-04-26T17:45:44.332Z,84.09
2019-04-26T17:48:16.338Z,84.49
2019-04-26T17:50:48.379Z,83.97
2019-04-26T17:53:30.776Z,84.54
2019-04-26T17:55:55.139Z,85.23
2019-04-26T17:58:33.607Z,84.95
2019-04-26T18:01:03.714Z,83.89
2019-04-26T18:03:35.415Z,84.10
2019-04-26T18:06:09.583Z,84.63
2019-04-26T18:08:51.204Z,84.90
2019-04-26T18:11:19.676Z,85.27
2019-04-26T18:13:51.119Z,85.61
2019-04-26T18:16:29.012Z,85.50
2019-04-26T18:19:15.616Z,86.14
2019-04-26T18:22:07.260Z,86.55
2019-04-26T18:24:39.242Z,86.81
2019-04-26T18:27:11.224Z,87.21
2019-04-26T18:29:43.700Z,87.70
2019-04-26T18:32:15.742Z,87.25
2019-04-26T18:34:47.794Z,86.47
2019-04-26T18:37:19.826Z,85.66
2019-04-26T18:39:53.369Z,87.37
2019-04-26T18:42:27.094Z,87.57
2019-04-26T18:44:59.142Z,88.08
2019-04-26T18:47:36.031Z,87.49
2019-04-26T18:50:08.410Z,85.98
2019-04-26T18:52:56.535Z,86.93
2019-04-26T18:55:30.191Z,87.48
2019-04-26T18:58:05.363Z,86.52
2019-04-26T19:00:38.050Z,86.57
2019-04-26T19:03:10.084Z,87.58
2019-04-26T19:05:43.151Z,88.01
2019-04-26T19:08:15.325Z,87.39
2019-04-26T19:10:58.311Z,87.74
2019-04-26T19:13:38.136Z,87.36
2019-04-26T19:16:28.089Z,87.43
2019-04-26T19:19:07.206Z,87.74
2019-04-26T19:21:52.848Z,88.35
2019-04-26T19:24:24.547Z,88.86
2019-04-26T19:26:56.673Z,89.05
2019-04-26T19:29:33.645Z,89.49
2019-04-26T19:32:04.361Z,89.49
2019-04-26T19:34:36.586Z,89.59
2019-04-26T19:37:08.669Z,89.30
2019-04-26T19:39:42.595Z,88.91
2019-04-26T19:42:14.627Z,89.13
2019-04-26T19:44:49.425Z,89.42
2019-04-26T19:47:39.491Z,89.69
2019-04-26T19:50:42.324Z,89.48
2019-04-26T19:53:34.773Z,89.30
2019-04-26T19:56:27.336Z,89.60
2019-04-26T19:58:57.640Z,89.82
2019-04-26T20:01:29.583Z,89.76
2019-04-26T20:04:02.449Z,89.51
2019-04-26T20:06:34.624Z,89.54
2019-04-26T20:09:07.044Z,89.43
2019-04-26T20:11:39.057Z,89.59
2019-04-26T20:14:12.394Z,88.99
2019-04-26T20:16:44.578Z,87.56
2019-04-26T20:19:18.004Z,88.17
2019-04-26T20:21:51.196Z,88.44
2019-04-26T20:24:24.093Z,88.70
2019-04-26T20:26:56.057Z,88.71
2019-04-26T20:29:28.060Z,89.18
2019-04-26T20:32:07.020Z,89.16
2019-04-26T20:34:41.286Z,88.98
2019-04-26T20:37:16.107Z,89.28
2019-04-26T20:39:47.255Z,89.17
2019-04-26T20:42:19.202Z,89.22
2019-04-26T20:44:53.627Z,89.08
2019-04-26T20:47:25.387Z,88.86
2019-04-26T20:50:01.287Z,89.05
2019-04-26T20:52:32.138Z,88.86
2019-04-26T20:55:04.415Z,88.84
2019-04-26T20:57:36.516Z,87.95
2019-04-26T21:00:08.725Z,88.38
2019-04-26T21:02:40.711Z,88.26
2019-04-26T21:05:14.662Z,88.03
2019-04-26T21:07:50.156Z,88.57
2019-04-26T21:10:25.049Z,88.10
2019-04-26T21:12:55.093Z,88.02
2019-04-26T21:15:27.239Z,88.21
2019-04-26T21:18:02.726Z,88.42
2019-04-26T21:20:36.501Z,88.51
2019-04-26T21:23:08.726Z,89.09
2019-04-26T21:25:50.257Z,89.10
2019-04-26T21:28:42.775Z,88.93
2019-04-26T21:31:26.878Z,88.82
2019-04-26T21:34:07.856Z,89.43
2019-04-26T21:36:57.944Z,89.35
2019-04-26T21:39:49.619Z,89.63
2019-04-26T21:42:25.509Z,88.85
2019-04-26T21:44:55.553Z,89.24
2019-04-26T21:47:31.828Z,89.10
2019-04-26T21:50:01.556Z,89.25
2019-04-26T21:52:34.333Z,89.04
2019-04-26T21:55:06.739Z,89.11
2019-04-26T21:57:38.801Z,88.38
2019-04-26T22:00:29.428Z,88.88
2019-04-26T22:03:01.449Z,88.83
2019-04-26T22:05:35.034Z,88.81
2019-04-26T22:08:07.437Z,88.70
2019-04-26T22:10:44.650Z,88.69
2019-04-26T22:13:23.661Z,87.88
2019-04-26T22:16:30.587Z,88.25
2019-04-26T22:19:10.205Z,88.19
2019-04-26T22:21:53.416Z,88.08
2019-04-26T22:24:36.265Z,88.20
2019-04-26T22:27:08.274Z,87.76
2019-04-26T22:29:40.268Z,87.26
2019-04-26T22:32:15.911Z,87.23
2019-04-26T22:34:46.425Z,87.36
2019-04-26T22:37:29.151Z,86.74
2019-04-26T22:39:54.230Z,87.24
2019-04-26T22:42:26.658Z,87.09
2019-04-26T22:45:21.048Z,87.15
2019-04-26T22:48:03.500Z,86.84
2019-04-26T22:50:35.546Z,86.93
2019-04-26T22:53:07.526Z,86.91
2019-04-26T22:55:39.513Z,86.78
2019-04-26T22:58:13.298Z,86.98
2019-04-26T23:00:45.915Z,86.83
2019-04-26T23:03:18.008Z,86.82
2019-04-26T23:05:50.067Z,86.10
2019-04-26T23:08:23.636Z,85.71
2019-04-26T23:10:57.657Z,85.21
2019-04-26T23:13:49.212Z,85.25
2019-04-26T23:16:40.358Z,85.95
2019-04-26T23:19:31.097Z,86.05
2019-04-26T23:22:04.131Z,86.17
2019-04-26T23:24:36.199Z,85.77
2019-04-26T23:27:08.326Z,85.67
2019-04-26T23:29:40.375Z,85.50
2019-04-26T23:32:18.571Z,85.37
2019-04-26T23:34:46.420Z,85.90
2019-04-26T23:37:19.306Z,86.05
2019-04-26T23:39:53.621Z,86.04
2019-04-26T23:42:25.813Z,85.85
2019-04-26T23:44:57.784Z,85.92
2019-04-26T23:47:31.945Z,85.96
2019-04-26T23:50:04.151Z,86.28
2019-04-26T23:52:36.133Z,85.91
2019-04-26T23:55:09.232Z,85.80
2019-04-26T23:57:43.362Z,85.81
